Terminal Aerodrome Forecast
Issued by NWS

Home | Current Version | Previous Version | Text Only | Print | Product List | Glossary On
Versions: 1 2 3 4 5 6 7 8 9 10 11 12 13 14
000
FTUS46 KSEW 081754
TAFHQM
TAF
KHQM 081754Z 0818/0918 07020G30KT P6SM BKN100 OVC200
     FM090000 07018G28KT P6SM -SN SCT022 OVC050
     FM090200 07015G23KT 5SM -RA BR SCT007 OVC022
     FM090600 12015G25KT 5SM -RA BR BKN020 OVC035=

USA.gov is the U.S. government's official web portal to all federal, state and local government web resources and services.